Arbyrd, Missouri
Current Conditions -  °F | °C
As of 10:53 AM on Saturday 20 Dec 2014 (Local Time) from KHKA Reporting Station
Overcast Overcast  
Wind Chill: 42°   Ceiling: 6000
Heat Index: 44°   Visibility: 9mi
Dew Point: 34°   Wind: 5mph
Humidity: 68%   Direction: 80°E
Pressure: 30.3"   Gusts: NA
Location:  36.05°N, 90.24°W
Report Text: KHKA 201653Z AUTO 08004KT 9SM OVC060 07/01 A3030 RMK AO2 SLP261 T00670011
Loading
Personal Weather Stations






























Interactive Weather Map New forecast layout! Learn more

10-Day Weather Forecast

Advertisements
Track Severe Weather on mobile